Time;durP1;ratioP1;P1;durP2;ratioP2;P2;SDS_P1;SDS_P2;PMS_P1;PMS_P2;Temp;Humidity;BMP_temperature;BMP_pressure;BME280_temperature;BME280_humidity;BME280_pressure;Samples;Min_cycle;Max_cycle;Signal;HPM_P1;HPM_P2
2023/03/12 00:00:41;;;;;;;10.33;4.90;;;;;;;2.99;87.01;93774.06;6214020;23;20174;-84
2023/03/12 00:03:08;;;;;;;9.37;4.40;;;;;;;3.00;86.18;93791.00;6213387;23;20186;-82
2023/03/12 00:05:37;;;;;;;9.60;4.10;;;;;;;2.99;86.85;93780.97;6213488;23;20182;-85
2023/03/12 00:08:04;;;;;;;5.90;4.00;;;;;;;2.96;86.81;93781.34;6213171;23;20167;-84
2023/03/12 00:10:31;;;;;;;6.23;3.83;;;;;;;2.91;86.86;93781.94;6212751;23;20185;-83
2023/03/12 00:12:58;;;;;;;6.00;4.20;;;;;;;2.86;87.21;93789.38;6212607;23;20176;-84
2023/03/12 00:15:26;;;;;;;9.63;5.00;;;;;;;2.85;87.11;93787.84;6212903;23;20177;-84
2023/03/12 00:17:56;;;;;;;9.00;5.40;;;;;;;2.86;86.62;93797.09;6213243;23;20166;-85
2023/03/12 00:20:23;;;;;;;7.60;4.70;;;;;;;2.78;86.65;93798.06;6212811;23;20170;-80
2023/03/12 00:22:50;;;;;;;6.87;4.60;;;;;;;2.82;86.49;93790.78;6212343;23;20205;-79
2023/03/12 00:25:17;;;;;;;9.60;5.20;;;;;;;2.82;87.16;93801.03;6216711;23;20170;-80
2023/03/12 00:27:44;;;;;;;10.80;5.17;;;;;;;2.82;86.58;93814.66;6213063;23;20165;-79
2023/03/12 00:30:12;;;;;;;11.90;5.40;;;;;;;2.83;86.38;93818.00;6212585;23;20192;-79
2023/03/12 00:32:40;;;;;;;9.23;5.20;;;;;;;2.80;87.25;93808.91;6212801;23;20170;-79
2023/03/12 00:35:08;;;;;;;8.57;5.37;;;;;;;2.72;87.24;93795.47;6211975;23;20165;-79
2023/03/12 00:37:36;;;;;;;8.93;4.80;;;;;;;2.78;86.26;93808.31;6212202;23;20163;-83
2023/03/12 00:40:04;;;;;;;10.43;5.30;;;;;;;2.75;86.53;93808.69;6212974;23;20162;-82
2023/03/12 00:42:31;;;;;;;14.43;5.30;;;;;;;2.78;87.11;93820.34;6215606;23;20197;-82
2023/03/12 00:44:58;;;;;;;9.90;5.60;;;;;;;2.71;87.33;93822.09;6212724;23;20189;-79
2023/03/12 00:47:25;;;;;;;9.07;5.57;;;;;;;2.70;88.02;93807.69;6212385;23;20240;-79
2023/03/12 00:49:53;;;;;;;9.30;5.80;;;;;;;2.62;87.26;93806.09;6211425;23;20684;-80
2023/03/12 00:52:20;;;;;;;11.47;5.77;;;;;;;2.58;88.15;93832.28;6211709;23;20170;-79
2023/03/12 00:54:49;;;;;;;11.77;6.33;;;;;;;2.57;87.76;93810.97;6213554;23;20170;-80
2023/03/12 00:57:16;;;;;;;7.87;5.33;;;;;;;2.52;88.36;93815.88;6218209;23;20630;-82
2023/03/12 00:59:43;;;;;;;8.90;5.67;;;;;;;2.42;89.12;93812.88;6213244;23;20529;-83
2023/03/12 01:02:10;;;;;;;9.97;6.50;;;;;;;2.38;88.99;93813.44;6214072;23;20176;-85
2023/03/12 01:04:37;;;;;;;9.30;6.10;;;;;;;2.45;88.50;93809.16;6211697;23;20621;-84
2023/03/12 01:07:20;;;;;;;8.07;5.37;;;;;;;2.47;88.73;93820.00;6212283;23;20166;-86
2023/03/12 01:09:59;;;;;;;9.67;5.67;;;;;;;2.47;88.07;93832.81;6212125;23;20633;-86
2023/03/12 01:12:26;;;;;;;6.87;5.40;;;;;;;2.38;88.42;93803.97;6212102;23;20184;-85
2023/03/12 01:14:57;;;;;;;7.33;5.70;;;;;;;2.47;88.50;93830.25;6213683;23;20170;-79
2023/03/12 01:17:24;;;;;;;8.07;5.53;;;;;;;2.46;88.34;93833.78;6211633;23;20158;-79
2023/03/12 01:19:51;;;;;;;7.80;5.70;;;;;;;2.46;88.00;93833.78;6211751;23;20640;-79
2023/03/12 01:22:19;;;;;;;8.10;5.40;;;;;;;2.34;88.54;93843.00;6211873;23;20162;-80
2023/03/12 01:24:46;;;;;;;7.73;5.33;;;;;;;2.46;88.04;93838.91;6211817;23;20719;-79
2023/03/12 01:27:13;;;;;;;11.23;5.30;;;;;;;2.48;88.04;93839.53;6210502;23;20174;-79
2023/03/12 01:29:39;;;;;;;10.70;6.07;;;;;;;2.48;88.55;93831.84;6209559;23;20170;-79
2023/03/12 01:32:07;;;;;;;6.80;5.40;;;;;;;2.43;88.38;93834.16;6213058;23;20627;-81
2023/03/12 01:34:35;;;;;;;7.87;5.70;;;;;;;2.38;88.75;93841.63;6213248;23;20245;-85
2023/03/12 01:37:02;;;;;;;9.53;5.53;;;;;;;2.28;88.21;93829.94;6219870;23;20181;-85
2023/03/12 01:39:30;;;;;;;10.57;5.80;;;;;;;2.41;88.36;93841.25;6223367;23;20170;-84
2023/03/12 01:41:57;;;;;;;9.03;5.13;;;;;;;2.40;88.28;93834.53;6214473;23;20173;-84
2023/03/12 01:44:24;;;;;;;10.13;5.80;;;;;;;2.41;88.56;93839.50;6213322;23;20193;-84
2023/03/12 01:46:51;;;;;;;7.30;5.57;;;;;;;2.40;88.52;93849.91;6214515;23;20170;-86
2023/03/12 01:49:21;;;;;;;20.23;6.67;;;;;;;2.42;89.02;93823.16;6214255;23;20170;-85
2023/03/12 01:51:54;;;;;;;11.70;6.40;;;;;;;2.36;89.12;93825.66;6214303;23;20159;-85
2023/03/12 01:54:26;;;;;;;9.40;5.67;;;;;;;2.34;89.18;93825.84;6215181;23;20158;-85
2023/03/12 01:56:56;;;;;;;7.43;5.63;;;;;;;2.34;89.21;93830.19;6215048;23;20173;-85
2023/03/12 01:59:26;;;;;;;11.60;5.63;;;;;;;2.32;89.23;93834.69;6213762;23;20711;-83
2023/03/12 02:01:56;;;;;;;10.20;5.73;;;;;;;2.34;88.39;93817.38;6218047;23;20166;-84
2023/03/12 02:04:25;;;;;;;9.77;6.80;;;;;;;2.25;89.14;93830.31;6213150;23;20228;-84
2023/03/12 02:07:01;;;;;;;9.37;6.60;;;;;;;2.34;88.83;93848.91;6212369;23;20221;-85
2023/03/12 02:09:28;;;;;;;10.50;5.87;;;;;;;2.28;88.20;93831.72;6211805;23;20560;-85
2023/03/12 02:11:56;;;;;;;10.13;5.73;;;;;;;2.42;88.58;93850.53;6212608;23;20166;-85
2023/03/12 02:14:23;;;;;;;8.07;5.57;;;;;;;2.38;87.91;93852.69;6212060;23;20522;-85
2023/03/12 02:16:54;;;;;;;6.57;5.17;;;;;;;2.22;88.44;93845.31;6213821;23;20170;-86
2023/03/12 02:19:30;;;;;;;13.40;7.13;;;;;;;2.08;89.06;93813.66;6218946;23;20158;-86
2023/03/12 02:21:58;;;;;;;6.80;5.40;;;;;;;2.37;88.89;93852.88;6212870;23;20569;-84
2023/03/12 02:24:32;;;;;;;9.57;6.27;;;;;;;2.41;88.70;93849.75;6212858;23;20198;-85
2023/03/12 02:27:02;;;;;;;9.97;5.30;;;;;;;2.39;88.22;93850.91;6211242;23;20229;-83
2023/03/12 02:29:31;;;;;;;7.83;5.50;;;;;;;2.43;88.37;93854.69;6213749;23;20169;-85
2023/03/12 02:32:01;;;;;;;8.00;5.30;;;;;;;2.43;88.03;93852.91;6214516;23;20170;-81
2023/03/12 02:34:28;;;;;;;10.50;5.40;;;;;;;2.22;88.35;93858.88;6220120;23;20169;-80
2023/03/12 02:36:55;;;;;;;5.97;5.30;;;;;;;2.07;89.52;93865.09;6214029;23;20167;-80
2023/03/12 02:39:22;;;;;;;5.93;5.07;;;;;;;1.82;90.37;93844.19;6214974;23;20489;-85
2023/03/12 02:41:52;;;;;;;8.17;5.57;;;;;;;2.00;90.71;93869.34;6214425;23;20173;-84
2023/03/12 02:44:24;;;;;;;9.10;6.13;;;;;;;1.98;90.68;93859.31;6212300;23;20180;-85
2023/03/12 02:46:52;;;;;;;7.17;5.50;;;;;;;2.10;90.90;93869.84;6213210;23;20170;-84
2023/03/12 02:49:21;;;;;;;8.67;5.70;;;;;;;2.00;91.40;93875.28;6215204;23;20166;-85
2023/03/12 02:51:48;;;;;;;8.23;5.80;;;;;;;2.01;91.59;93878.63;6222917;23;20168;-79
2023/03/12 02:54:18;;;;;;;7.93;5.90;;;;;;;1.93;91.89;93882.13;6214492;23;20166;-80
2023/03/12 02:56:44;;;;;;;7.23;5.87;;;;;;;1.98;92.10;93890.06;6213780;23;20185;-80
2023/03/12 02:59:13;;;;;;;8.30;5.60;;;;;;;2.13;91.26;93893.34;6214210;23;20269;-80
2023/03/12 03:01:42;;;;;;;7.07;5.73;;;;;;;1.99;90.91;93865.22;6214074;23;20687;-79
2023/03/12 03:04:10;;;;;;;7.40;5.90;;;;;;;2.24;91.56;93903.06;6213589;23;20193;-80
2023/03/12 03:06:39;;;;;;;9.43;6.10;;;;;;;2.25;91.33;93894.38;6214542;23;20223;-81
2023/03/12 03:09:06;;;;;;;9.60;5.90;;;;;;;2.31;91.13;93892.09;6203927;23;20178;-80
2023/03/12 03:11:33;;;;;;;11.07;7.00;;;;;;;2.26;90.74;93892.63;6213772;23;20173;-79
2023/03/12 03:14:02;;;;;;;11.07;6.30;;;;;;;2.29;90.86;93890.47;6213886;23;20177;-79
2023/03/12 03:16:28;;;;;;;10.20;6.03;;;;;;;2.27;91.02;93889.88;6213400;23;20173;-79
2023/03/12 03:18:57;;;;;;;12.47;6.70;;;;;;;2.28;91.17;93886.31;6213944;23;20166;-84
2023/03/12 03:21:23;;;;;;;8.57;6.53;;;;;;;2.31;90.51;93895.41;6213765;23;20177;-84
2023/03/12 03:23:51;;;;;;;7.93;5.93;;;;;;;2.29;90.26;93900.75;6213335;23;20691;-84
2023/03/12 03:26:20;;;;;;;7.67;5.70;;;;;;;2.28;89.59;93904.28;6215304;23;20170;-83
2023/03/12 03:28:47;;;;;;;9.17;6.40;;;;;;;2.17;89.98;93898.84;6214701;23;20547;-84
2023/03/12 03:31:14;;;;;;;6.83;5.03;;;;;;;2.16;89.48;93885.28;6214776;23;20252;-84
2023/03/12 03:33:42;;;;;;;9.17;5.50;;;;;;;2.05;89.47;93885.00;6214027;23;20634;-87
2023/03/12 03:36:13;;;;;;;8.37;5.73;;;;;;;2.10;88.95;93901.38;6213718;23;20169;-80
2023/03/12 03:38:41;;;;;;;10.00;5.40;;;;;;;1.97;88.86;93888.47;6214139;23;20231;-80
2023/03/12 03:41:08;;;;;;;8.60;6.43;;;;;;;2.07;88.77;93908.66;6215749;23;20193;-79
2023/03/12 03:43:35;;;;;;;10.93;8.67;;;;;;;2.06;88.50;93905.28;6213658;23;20523;-80
2023/03/12 03:46:04;;;;;;;16.63;6.50;;;;;;;2.00;88.35;93911.16;6216096;23;20177;-80
2023/03/12 03:48:31;;;;;;;7.90;5.43;;;;;;;1.92;89.00;93921.53;6215628;23;20693;-80
2023/03/12 03:51:00;;;;;;;8.47;5.30;;;;;;;1.93;89.21;93912.88;6213307;23;20707;-80
2023/03/12 03:53:28;;;;;;;8.13;5.17;;;;;;;1.90;89.21;93902.19;6213295;23;20200;-80
2023/03/12 03:55:55;;;;;;;9.50;5.33;;;;;;;1.98;88.80;93918.22;6214704;23;20272;-80
2023/03/12 03:58:22;;;;;;;9.77;5.67;;;;;;;1.96;88.88;93922.75;6218241;23;20255;-84
2023/03/12 04:00:50;;;;;;;7.93;5.33;;;;;;;1.87;88.09;93928.16;6213509;23;20173;-79
2023/03/12 04:03:17;;;;;;;7.53;5.60;;;;;;;1.86;88.63;93934.25;6211898;23;20173;-81
2023/03/12 04:05:44;;;;;;;7.87;4.63;;;;;;;1.88;88.09;93935.66;6213137;23;20171;-80
2023/03/12 04:08:11;;;;;;;8.20;5.27;;;;;;;1.84;88.39;93924.22;6214314;23;20169;-83
2023/03/12 04:10:40;;;;;;;8.50;5.43;;;;;;;1.86;87.83;93944.50;6214268;23;20223;-82
2023/03/12 04:13:07;;;;;;;8.57;4.67;;;;;;;1.82;87.20;93936.38;6205177;23;20169;-81
2023/03/12 04:15:34;;;;;;;7.27;4.87;;;;;;;1.79;86.61;93946.22;6220070;23;20169;-82
2023/03/12 04:18:00;;;;;;;7.67;4.70;;;;;;;1.64;86.62;93944.50;6218661;23;20252;-82
2023/03/12 04:20:27;;;;;;;9.40;4.50;;;;;;;1.64;84.93;93943.72;6214036;23;20522;-82
2023/03/12 04:22:54;;;;;;;6.80;4.73;;;;;;;1.64;85.17;93957.31;6215928;23;20627;-83
2023/03/12 04:25:21;;;;;;;9.57;6.07;;;;;;;1.50;84.92;93931.75;6218490;23;20599;-84
2023/03/12 04:27:49;;;;;;;9.27;6.53;;;;;;;1.66;84.92;93964.78;6218361;23;20564;-84
2023/03/12 04:30:16;;;;;;;8.60;5.50;;;;;;;1.57;84.50;93964.09;6217713;23;20236;-83
2023/03/12 04:32:43;;;;;;;7.77;5.30;;;;;;;1.56;84.68;93966.84;6217537;23;20177;-83
2023/03/12 04:35:09;;;;;;;9.30;5.33;;;;;;;1.53;84.48;93967.22;6215200;23;20509;-84
2023/03/12 04:37:36;;;;;;;7.20;5.27;;;;;;;1.32;85.21;93959.47;6214500;23;20161;-83
2023/03/12 04:40:06;;;;;;;8.40;5.37;;;;;;;1.38;84.96;93964.69;6214109;23;20589;-84
2023/03/12 04:42:34;;;;;;;9.63;5.10;;;;;;;1.36;84.78;93968.38;6214223;23;20191;-84
2023/03/12 04:45:02;;;;;;;9.23;5.00;;;;;;;1.38;85.24;93974.13;6213138;23;20680;-83
2023/03/12 04:47:30;;;;;;;7.20;4.83;;;;;;;1.36;84.97;93978.59;6213246;23;20490;-83
2023/03/12 04:49:57;;;;;;;6.57;4.43;;;;;;;1.32;85.06;93978.19;6217688;23;20177;-83
2023/03/12 04:52:25;;;;;;;7.20;4.63;;;;;;;1.35;85.28;93989.84;6212665;23;20576;-82
2023/03/12 04:54:52;;;;;;;8.47;4.93;;;;;;;1.23;84.74;93988.69;6212361;23;20510;-85
2023/03/12 04:57:19;;;;;;;9.07;5.30;;;;;;;1.30;85.53;93999.81;6212391;23;20172;-81
2023/03/12 04:59:46;;;;;;;10.83;5.83;;;;;;;1.35;85.59;94003.44;6182415;23;20223;-80
2023/03/12 05:02:14;;;;;;;9.50;4.93;;;;;;;1.39;85.64;94011.53;6183646;23;20165;-81
2023/03/12 05:04:41;;;;;;;6.93;4.63;;;;;;;1.35;85.27;94013.66;6189678;23;20202;-81
2023/03/12 05:07:07;;;;;;;8.20;4.80;;;;;;;1.31;85.50;94009.88;6182835;23;20550;-81
2023/03/12 05:09:34;;;;;;;9.53;4.80;;;;;;;1.32;85.89;94016.59;6182714;23;20225;-82
2023/03/12 05:12:01;;;;;;;9.47;5.20;;;;;;;1.33;85.98;94028.38;6182392;23;20562;-83
2023/03/12 05:14:28;;;;;;;9.57;5.50;;;;;;;1.34;86.06;94024.88;6180080;23;20167;-85
2023/03/12 05:16:55;;;;;;;12.03;5.73;;;;;;;1.40;86.08;94028.47;6181915;23;20169;-84
2023/03/12 05:19:23;;;;;;;9.73;5.20;;;;;;;1.39;86.00;94032.00;6183417;23;20210;-85
2023/03/12 05:21:50;;;;;;;8.30;5.17;;;;;;;1.41;86.02;94032.63;6187470;23;20172;-85
2023/03/12 05:24:17;;;;;;;14.03;5.80;;;;;;;1.36;86.37;94022.13;6181703;23;20208;-85
2023/03/12 05:26:44;;;;;;;10.30;5.40;;;;;;;1.44;86.31;94033.09;6182262;23;20171;-85
2023/03/12 05:29:11;;;;;;;10.53;5.73;;;;;;;1.49;86.21;94029.97;6182101;23;20177;-82
2023/03/12 05:31:38;;;;;;;12.13;5.97;;;;;;;1.41;86.33;94027.50;6182704;23;20248;-84
2023/03/12 05:34:05;;;;;;;10.80;5.90;;;;;;;1.55;86.12;94044.63;6183764;23;20171;-84
2023/03/12 05:36:34;;;;;;;9.63;5.87;;;;;;;1.42;85.58;94044.44;6183249;23;20188;-85
2023/03/12 05:39:01;;;;;;;10.43;5.20;;;;;;;1.34;85.82;94050.44;6187001;23;20178;-84
2023/03/12 05:41:29;;;;;;;6.80;5.10;;;;;;;1.29;86.59;94041.72;6183068;23;20463;-84
2023/03/12 05:43:57;;;;;;;7.67;4.70;;;;;;;1.22;86.36;94056.97;6182587;23;20173;-85
2023/03/12 05:46:25;;;;;;;5.80;4.60;;;;;;;1.19;87.31;94061.66;6182873;23;20518;-85
2023/03/12 05:48:52;;;;;;;10.00;4.37;;;;;;;1.22;87.35;94066.41;6182327;23;20169;-84
2023/03/12 05:51:19;;;;;;;9.20;4.83;;;;;;;1.20;87.56;94055.56;6182373;23;20169;-82
2023/03/12 05:53:48;;;;;;;8.77;4.30;;;;;;;1.31;87.24;94073.84;6182432;23;20235;-82
2023/03/12 05:56:16;;;;;;;6.73;4.23;;;;;;;1.35;86.41;94074.28;6182553;23;20180;-83
2023/03/12 05:58:44;;;;;;;8.30;4.20;;;;;;;1.42;85.21;94068.28;6203858;23;20198;-84
2023/03/12 06:01:16;;;;;;;9.83;4.40;;;;;;;1.46;85.23;94068.72;6212826;23;20173;-81
2023/03/12 06:03:43;;;;;;;5.60;3.87;;;;;;;1.56;84.23;94087.16;6212188;23;20175;-81
2023/03/12 06:06:10;;;;;;;4.83;3.40;;;;;;;1.73;83.45;94086.78;6212776;23;20190;-82
2023/03/12 06:08:37;;;;;;;5.43;3.90;;;;;;;1.79;82.51;94100.66;6212604;23;20565;-80
2023/03/12 06:11:06;;;;;;;9.67;4.07;;;;;;;1.76;80.86;94095.88;6212462;23;20172;-80
2023/03/12 06:13:33;;;;;;;5.47;4.00;;;;;;;1.73;81.70;94087.78;6213210;23;20166;-80
2023/03/12 06:16:04;;;;;;;8.93;4.47;;;;;;;1.68;82.92;94090.84;6213451;23;20173;-80
2023/03/12 06:18:31;;;;;;;10.13;5.37;;;;;;;1.65;82.95;94089.44;6213465;23;20570;-81
2023/03/12 06:21:08;;;;;;;6.60;4.50;;;;;;;1.40;82.89;94062.53;6212907;23;20174;-81
2023/03/12 06:23:35;;;;;;;7.23;4.53;;;;;;;1.78;82.10;94101.63;6212594;23;20192;-81
2023/03/12 06:26:02;;;;;;;6.83;4.00;;;;;;;1.73;82.10;94109.84;6212204;23;20201;-81
2023/03/12 06:28:31;;;;;;;8.40;4.53;;;;;;;1.63;82.09;94090.59;6212299;23;20173;-80
2023/03/12 06:30:58;;;;;;;10.40;5.77;;;;;;;1.82;82.13;94120.00;6210988;23;20172;-81
2023/03/12 06:33:27;;;;;;;7.07;4.73;;;;;;;1.99;82.20;94139.34;6212258;23;20685;-80
2023/03/12 06:36:05;;;;;;;8.10;4.23;;;;;;;1.94;81.78;94119.38;6214290;23;20192;-81
2023/03/12 06:38:32;;;;;;;7.03;4.83;;;;;;;2.11;82.08;94138.69;6214570;23;20154;-81
2023/03/12 06:41:02;;;;;;;8.10;4.63;;;;;;;2.12;81.92;94147.19;6216077;23;20181;-82
2023/03/12 06:43:32;;;;;;;6.50;4.40;;;;;;;2.03;82.27;94128.53;6214655;23;20165;-85
2023/03/12 06:46:00;;;;;;;7.93;4.53;;;;;;;2.03;81.60;94127.75;6214759;23;20205;-84
2023/03/12 06:48:39;;;;;;;5.13;3.93;;;;;;;2.19;80.64;94138.56;6215102;23;20166;-84
2023/03/12 06:51:07;;;;;;;7.73;4.47;;;;;;;2.07;80.25;94131.56;6215149;23;20166;-85
2023/03/12 06:53:34;;;;;;;15.67;4.73;;;;;;;2.25;79.63;94163.50;6215318;23;20185;-84
2023/03/12 06:56:01;;;;;;;6.33;3.60;;;;;;;2.07;78.84;94163.09;6214722;23;20256;-84
2023/03/12 06:58:30;;;;;;;4.90;3.43;;;;;;;2.05;79.40;94175.28;6222289;23;20197;-86
2023/03/12 07:00:57;;;;;;;4.83;3.73;;;;;;;2.04;78.81;94170.34;6219001;23;20204;-85
2023/03/12 07:03:24;;;;;;;7.00;3.77;;;;;;;2.17;78.90;94181.53;6219388;23;20162;-81
2023/03/12 07:05:52;;;;;;;5.10;3.60;;;;;;;2.22;77.38;94183.59;6213769;23;20233;-80
2023/03/12 07:08:19;;;;;;;7.10;4.50;;;;;;;2.20;75.81;94178.63;6214299;23;20169;-80
2023/03/12 07:10:46;;;;;;;9.13;4.80;;;;;;;2.17;75.72;94185.88;6213973;23;20207;-79
2023/03/12 07:13:13;;;;;;;5.40;3.50;;;;;;;2.20;75.24;94176.06;6214267;23;20177;-85
2023/03/12 07:15:41;;;;;;;6.73;4.10;;;;;;;2.17;75.75;94191.00;6214434;23;20170;-86
2023/03/12 07:18:10;;;;;;;5.53;3.73;;;;;;;2.08;75.31;94189.50;6204086;23;20197;-84
2023/03/12 07:20:39;;;;;;;5.77;3.77;;;;;;;2.08;75.67;94192.06;6216162;23;20171;-85
2023/03/12 07:23:06;;;;;;;9.07;3.87;;;;;;;1.99;76.36;94188.78;6214862;23;20661;-85
2023/03/12 07:25:35;;;;;;;7.20;4.13;;;;;;;2.17;77.00;94214.06;6214834;23;20197;-86
2023/03/12 07:28:02;;;;;;;6.23;3.50;;;;;;;2.33;75.90;94207.97;6213981;23;20198;-87
2023/03/12 07:30:32;;;;;;;6.20;3.93;;;;;;;2.25;75.88;94209.63;6214604;23;20173;-86
2023/03/12 07:33:00;;;;;;;4.70;3.90;;;;;;;2.25;76.13;94212.19;6214228;23;20244;-86
2023/03/12 07:35:27;;;;;;;6.23;4.00;;;;;;;2.44;75.51;94216.00;6214060;23;20170;-85
2023/03/12 07:37:58;;;;;;;6.10;4.07;;;;;;;2.45;74.90;94225.28;6222150;23;20173;-86
2023/03/12 07:40:25;;;;;;;5.37;4.00;;;;;;;2.47;75.32;94215.63;6213903;23;20180;-88
2023/03/12 07:42:52;;;;;;;6.57;3.60;;;;;;;2.56;74.16;94212.00;6213978;23;20647;-87
2023/03/12 07:45:19;;;;;;;3.63;3.10;;;;;;;2.51;74.85;94211.72;6215283;23;20538;-86
2023/03/12 07:47:46;;;;;;;6.43;3.57;;;;;;;2.68;75.03;94240.53;6214064;23;20174;-86
2023/03/12 07:50:15;;;;;;;5.27;3.20;;;;;;;2.74;73.24;94255.22;6213464;23;20233;-86
2023/03/12 07:52:43;;;;;;;5.03;3.20;;;;;;;2.61;72.48;94231.97;6215875;23;20609;-86
2023/03/12 07:55:11;;;;;;;3.70;3.13;;;;;;;2.61;73.54;94224.25;6215797;23;20519;-85
2023/03/12 07:57:38;;;;;;;5.50;3.40;;;;;;;2.68;73.62;94225.16;6215184;23;20170;-85
2023/03/12 08:00:08;;;;;;;5.93;3.30;;;;;;;2.62;74.54;94225.84;6215813;23;20158;-85
2023/03/12 08:02:35;;;;;;;6.50;3.90;;;;;;;2.70;73.73;94218.06;6221212;23;20560;-85
2023/03/12 08:05:02;;;;;;;7.73;4.00;;;;;;;2.63;73.07;94232.56;6215135;23;20190;-80
2023/03/12 08:07:33;;;;;;;11.87;5.40;;;;;;;2.74;72.52;94234.69;6213861;23;20170;-80
2023/03/12 08:10:00;;;;;;;12.17;6.30;;;;;;;2.71;71.85;94217.88;6214075;23;20197;-80
2023/03/12 08:12:28;;;;;;;8.27;4.70;;;;;;;2.64;71.72;94226.47;6213927;23;20552;-79
2023/03/12 08:14:55;;;;;;;9.47;4.70;;;;;;;2.68;71.97;94231.06;6214474;23;20166;-79
2023/03/12 08:17:22;;;;;;;7.60;4.30;;;;;;;2.74;73.04;94253.41;6214188;23;20177;-80
2023/03/12 08:19:49;;;;;;;8.73;4.60;;;;;;;2.80;72.68;94260.38;6214444;23;20177;-87
2023/03/12 08:22:16;;;;;;;6.73;4.87;;;;;;;2.80;73.53;94245.00;6214668;23;20643;-86
2023/03/12 08:24:44;;;;;;;8.40;4.50;;;;;;;2.88;72.76;94244.13;6214771;23;20489;-86
2023/03/12 08:27:12;;;;;;;5.27;3.87;;;;;;;2.90;72.25;94241.34;6218314;23;20479;-86
2023/03/12 08:29:42;;;;;;;6.43;3.90;;;;;;;2.86;71.46;94254.53;6214796;23;20676;-85
2023/03/12 08:32:10;;;;;;;5.97;3.97;;;;;;;2.78;71.85;94248.72;6214551;23;20621;-85
2023/03/12 08:34:37;;;;;;;6.23;3.70;;;;;;;3.02;70.13;94281.78;6215035;23;20249;-85
2023/03/12 08:37:06;;;;;;;3.93;3.17;;;;;;;3.20;68.17;94255.69;6214185;23;20162;-81
2023/03/12 08:39:33;;;;;;;5.37;4.03;;;;;;;3.18;69.17;94255.06;6214567;23;20228;-82
2023/03/12 08:42:01;;;;;;;4.57;3.30;;;;;;;3.32;67.92;94277.31;6216895;23;20174;-81
2023/03/12 08:44:28;;;;;;;4.60;3.37;;;;;;;3.34;67.72;94283.09;6214005;23;20204;-82
2023/03/12 08:46:55;;;;;;;5.27;3.23;;;;;;;3.43;67.13;94275.06;6211989;23;20194;-80
2023/03/12 08:49:23;;;;;;;6.67;3.60;;;;;;;3.43;67.62;94267.34;6212874;23;20170;-81
2023/03/12 08:51:51;;;;;;;5.33;3.47;;;;;;;3.40;67.85;94280.59;6213256;23;20230;-81
2023/03/12 08:54:18;;;;;;;5.77;3.40;;;;;;;3.19;67.64;94234.34;6220815;23;20169;-81
2023/03/12 08:56:45;;;;;;;8.00;3.50;;;;;;;3.51;68.81;94286.19;6213129;23;20167;-82
2023/03/12 08:59:14;;;;;;;6.13;3.20;;;;;;;3.62;67.58;94291.63;6212123;23;20673;-81
2023/03/12 09:01:41;;;;;;;5.80;3.40;;;;;;;3.74;67.03;94289.38;6212998;23;20172;-83
2023/03/12 09:04:08;;;;;;;5.80;3.90;;;;;;;3.84;68.38;94289.84;6215289;23;20162;-81
2023/03/12 09:06:35;;;;;;;6.10;3.97;;;;;;;3.83;68.81;94267.72;6212519;23;20190;-81
2023/03/12 09:09:03;;;;;;;5.47;3.90;;;;;;;4.14;69.16;94296.41;6215906;23;20177;-81
2023/03/12 09:11:31;;;;;;;6.37;4.37;;;;;;;4.30;68.86;94288.38;6215510;23;20170;-81
2023/03/12 09:13:58;;;;;;;5.30;3.60;;;;;;;4.64;68.13;94290.19;6217662;23;20174;-81
2023/03/12 09:16:27;;;;;;;4.63;3.43;;;;;;;4.74;66.59;94277.75;6217647;23;20170;-80
2023/03/12 09:18:54;;;;;;;5.53;3.40;;;;;;;4.46;67.31;94277.00;6212731;23;20598;-81
2023/03/12 09:21:21;;;;;;;5.27;3.30;;;;;;;4.72;67.04;94282.28;6214853;23;20171;-81
2023/03/12 09:23:48;;;;;;;5.20;3.30;;;;;;;4.85;66.29;94284.13;6213686;23;20622;-84
2023/03/12 09:26:15;;;;;;;6.70;4.03;;;;;;;5.12;65.49;94265.22;6213657;23;20187;-83
2023/03/12 09:28:43;;;;;;;5.20;3.00;;;;;;;5.34;63.33;94283.91;6213449;23;20541;-81
2023/03/12 09:31:12;;;;;;;7.03;3.50;;;;;;;5.55;62.92;94278.56;6212861;23;20247;-82
2023/03/12 09:33:40;;;;;;;5.17;3.93;;;;;;;5.78;63.17;94279.00;6212957;23;20210;-85
2023/03/12 09:36:07;;;;;;;5.07;3.67;;;;;;;6.02;62.49;94281.03;6214259;23;20200;-83
2023/03/12 09:38:34;;;;;;;6.80;3.50;;;;;;;5.68;63.13;94270.88;6220353;23;20172;-85
2023/03/12 09:41:04;;;;;;;5.63;3.53;;;;;;;5.75;64.47;94269.06;6218690;23;20229;-86
2023/03/12 09:43:37;;;;;;;6.77;4.03;;;;;;;5.93;64.82;94276.25;6213491;23;20169;-86
2023/03/12 09:46:08;;;;;;;4.80;3.50;;;;;;;6.49;64.65;94285.13;6213022;23;20181;-85
2023/03/12 09:48:37;;;;;;;4.73;3.60;;;;;;;6.71;62.38;94283.09;6213233;23;20169;-85
2023/03/12 09:51:14;;;;;;;7.27;4.60;;;;;;;7.17;61.39;94275.97;6212923;23;20540;-85
2023/03/12 09:53:45;;;;;;;8.30;4.23;;;;;;;7.70;61.89;94279.03;6212505;23;20556;-86
2023/03/12 09:56:15;;;;;;;5.63;3.67;;;;;;;7.54;58.39;94274.34;6213235;23;20871;-86
2023/03/12 09:58:46;;;;;;;6.47;3.73;;;;;;;7.51;58.80;94277.34;6213603;23;20194;-89
2023/03/12 10:01:28;;;;;;;6.43;3.70;;;;;;;7.71;58.96;94287.56;6216173;23;20233;-89
2023/03/12 10:04:07;;;;;;;4.37;3.00;;;;;;;7.66;57.93;94284.81;6212535;23;20161;-85
2023/03/12 10:06:41;;;;;;;4.53;3.23;;;;;;;8.18;56.19;94276.69;6212778;23;20557;-87
2023/03/12 10:09:27;;;;;;;3.73;3.13;;;;;;;8.57;55.49;94289.28;6213056;23;20605;-84
2023/03/12 10:12:00;;;;;;;4.87;3.30;;;;;;;8.77;54.11;94286.50;6214306;23;20169;-85
2023/03/12 10:14:43;;;;;;;4.17;3.00;;;;;;;8.90;53.79;94277.78;6214493;23;20239;-81
2023/03/12 10:17:37;;;;;;;4.73;3.33;;;;;;;8.88;50.15;94277.22;6202874;23;20178;-82
2023/03/12 10:20:34;;;;;;;4.67;2.90;;;;;;;8.81;49.52;94284.25;6212957;23;20150;-83
2023/03/12 10:23:09;;;;;;;4.53;3.50;;;;;;;8.64;48.74;94284.03;6210774;23;20178;-81
2023/03/12 10:25:42;;;;;;;7.23;4.07;;;;;;;8.84;50.53;94289.00;6214624;23;20189;-84
2023/03/12 10:28:16;;;;;;;4.37;3.40;;;;;;;8.56;49.59;94284.31;6214225;23;20617;-81
2023/03/12 10:30:50;;;;;;;3.87;2.73;;;;;;;8.35;49.31;94292.47;6214048;23;20165;-82
2023/03/12 10:33:19;;;;;;;6.10;3.07;;;;;;;8.57;48.88;94278.16;6213552;23;20154;-82
2023/03/12 10:35:46;;;;;;;3.90;3.17;;;;;;;8.79;48.75;94281.91;6213501;23;20180;-76
2023/03/12 10:38:20;;;;;;;9.33;3.43;;;;;;;8.77;50.97;94291.69;6215747;23;20510;-86
2023/03/12 10:40:47;;;;;;;4.43;3.10;;;;;;;9.16;49.00;94284.47;6213748;23;20162;-81
2023/03/12 10:43:14;;;;;;;5.57;2.80;;;;;;;9.73;46.67;94286.50;6213833;23;20166;-82
2023/03/12 10:45:48;;;;;;;3.80;2.90;;;;;;;9.97;46.25;94280.34;6215303;23;20225;-82
2023/03/12 10:48:20;;;;;;;5.07;3.13;;;;;;;10.47;46.23;94280.78;6214252;23;20161;-79
2023/03/12 10:51:01;;;;;;;3.70;2.93;;;;;;;11.02;45.46;94291.56;6213067;23;20166;-79
2023/03/12 10:53:33;;;;;;;3.77;2.93;;;;;;;11.76;43.75;94293.28;6212228;23;20946;-81
2023/03/12 10:56:02;;;;;;;4.63;2.90;;;;;;;11.87;41.12;94294.22;6212242;23;20245;-83
2023/03/12 10:58:34;;;;;;;6.73;3.40;;;;;;;11.95;42.70;94299.03;6212016;23;20202;-82
2023/03/12 11:01:03;;;;;;;6.13;4.30;;;;;;;11.95;41.35;94286.03;6212101;23;20245;-80
2023/03/12 11:03:30;;;;;;;3.33;2.97;;;;;;;12.43;41.80;94277.69;6211575;23;20181;-79
2023/03/12 11:06:00;;;;;;;4.60;3.03;;;;;;;12.79;37.56;94276.34;6213028;23;20259;-80
2023/03/12 11:08:30;;;;;;;3.73;2.80;;;;;;;12.65;35.20;94278.53;6212554;23;20174;-80
2023/03/12 11:10:58;;;;;;;5.33;3.40;;;;;;;12.58;35.40;94277.91;6211977;23;20169;-79
2023/03/12 11:13:30;;;;;;;4.53;2.93;;;;;;;12.87;35.29;94289.00;6212414;23;20189;-80
2023/03/12 11:15:59;;;;;;;5.07;3.10;;;;;;;12.06;35.77;94287.81;6212011;23;20158;-79
2023/03/12 11:18:32;;;;;;;4.20;2.77;;;;;;;12.31;35.67;94267.34;6211896;23;20261;-80
2023/03/12 11:21:15;;;;;;;3.70;2.90;;;;;;;12.05;36.30;94269.78;6211442;23;20501;-79
2023/03/12 11:23:47;;;;;;;4.67;3.40;;;;;;;12.65;37.57;94270.69;6211013;23;20170;-83
2023/03/12 11:26:18;;;;;;;3.73;2.73;;;;;;;13.08;34.43;94285.63;6218697;23;20178;-80
2023/03/12 11:28:48;;;;;;;4.40;3.00;;;;;;;13.18;33.79;94280.56;6213314;23;20209;-81
2023/03/12 11:31:23;;;;;;;4.50;3.17;;;;;;;13.31;34.85;94271.56;6214330;23;20169;-81
2023/03/12 11:33:53;;;;;;;4.10;2.90;;;;;;;12.79;34.22;94268.53;6213372;23;20161;-80
2023/03/12 11:36:39;;;;;;;3.73;3.03;;;;;;;12.25;35.92;94264.91;6212855;23;20633;-80
2023/03/12 11:39:20;;;;;;;6.27;3.20;;;;;;;11.73;37.45;94275.50;6207809;23;20170;-81
2023/03/12 11:42:10;;;;;;;3.03;2.60;;;;;;;11.63;37.89;94266.72;6210620;23;20174;-80
2023/03/12 11:44:44;;;;;;;3.20;2.73;;;;;;;12.09;36.98;94268.31;6214234;23;20177;-80
2023/03/12 11:47:34;;;;;;;7.37;3.30;;;;;;;12.07;34.85;94265.13;6212984;23;20198;-81